MSC Vega — D5BE4 — position and weather

sailwx.info

Track history (hours):
 
Tides and Currents Weather Stations Pressure Air Temp Water Temp Dewpoint Dewpoint Depression Visibility Wind Speed Wind Dir Waves Ship Positions

MSC Vega

Last reported at 2016-Aug-23 23:29 UTC. Time now 2016-Aug-28 14:08 UTC.
Position N 01°12' E 103°35'.

Length 366 m; draft 14.3 m.

Type: Ship (hazmat cat A). MMSI: 636015506.

Date/timePositionNaut miles runAvg speedWind from/ knotsBaromVisibWave heightAir tempDewpointWater temp
2016-Aug-23 23:29N 01°12' E 103°35'8 9.1
2016-Aug-23 22:33N 01°15' E 103°43'3 3.0
2016-Aug-23 21:26N 01°17' E 103°46'0 0.0
2016-Aug-23 20:32N 01°17' E 103°46'0 0.0
2016-Aug-23 19:32N 01°17' E 103°46'0 0.0
2016-Aug-23 18:32N 01°17' E 103°46'0 0.0
2016-Aug-23 17:32N 01°17' E 103°46'0 0.0
2016-Aug-23 16:32N 01°17' E 103°46'0 0.1
2016-Aug-23 15:32N 01°17' E 103°45'0 0.1
2016-Aug-23 14:29N 01°17' E 103°46'0 0.0
2016-Aug-23 13:20N 01°17' E 103°46'0 0.0
2016-Aug-23 12:32N 01°17' E 103°46'0 0.0
2016-Aug-23 11:32N 01°17' E 103°46'0 0.0
2016-Aug-23 10:32N 01°17' E 103°46'0 0.0
2016-Aug-23 09:32N 01°17' E 103°46'0 0.0
2016-Aug-23 08:26N 01°17' E 103°46'0 0.0
2016-Aug-23 07:20N 01°17' E 103°46'0 0.0
2016-Aug-23 06:32N 01°17' E 103°46'0 0.1
2016-Aug-23 05:32N 01°17' E 103°45'0 0.1
2016-Aug-23 04:32N 01°17' E 103°46'0 0.0
2016-Aug-23 03:32N 01°17' E 103°46'0 0.0
2016-Aug-23 02:32N 01°17' E 103°46'1 1.1
2016-Aug-23 01:33N 01°16' E 103°46'8 8.0
2016-Aug-23 00:33N 01°14' E 103°54'8 8.1
2016-Aug-22 23:33N 01°16' E 104°02'  
2016-Aug-19 11:06N 22°04' E 114°25'1017.9
2016-Aug-19 10:33N 22°13' E 114°28'2 0.1
2016-Aug-18 18:08N 22°14' E 114°30'813.1
2016-Aug-18 17:33N 22°07' E 114°25'2311.5
2016-Aug-18 15:33N 22°20' E 114°05'1110.9
2016-Aug-18 14:33N 22°23' E 113°54'5 3.8
2016-Aug-18 13:23N 22°28' E 113°53'0 0.0
2016-Aug-18 12:29N 22°28' E 113°53'0 0.0
2016-Aug-18 11:29N 22°28' E 113°53'0 0.0
2016-Aug-18 10:29N 22°28' E 113°53'0 0.0
2016-Aug-18 09:29N 22°28' E 113°53'0 0.0
2016-Aug-18 08:17N 22°28' E 113°53'0 0.0
2016-Aug-18 07:29N 22°28' E 113°53'0 0.0
2016-Aug-18 06:29N 22°28' E 113°53'0 0.0
2016-Aug-18 05:32N 22°28' E 113°53'0 0.0
2016-Aug-18 04:29N 22°28' E 113°53'0 0.0
2016-Aug-18 03:23N 22°28' E 113°53'0 0.0
2016-Aug-18 02:29N 22°28' E 113°53'0 0.0
2016-Aug-18 01:29N 22°28' E 113°53'1 0.5
2016-Aug-18 00:33N 22°27' E 113°53'11 7.3
2016-Aug-17 23:03N 22°21' E 114°02'20 4.1
2016-Aug-17 18:08N 22°05' E 113°49'5 7.9
2016-Aug-17 17:33N 22°10' E 113°50'1614.9
2016-Aug-17 16:28N 22°26' E 113°45'2 0.1
2016-Aug-16 22:33N 22°27' E 113°45'1313.5
2016-Aug-16 21:33N 22°14' E 113°49'17015.0
2016-Aug-16 10:14N 22°49' E 116°49'1318.5
2016-Aug-16 09:31N 22°56' E 117°01'9017.9
2016-Aug-16 04:29N 23°56' E 118°15'1617.6
2016-Aug-16 03:33N 24°12' E 118°18'1312.8
2016-Aug-16 02:33N 24°22' E 118°09'9 8.5
2016-Aug-16 01:33N 24°27' E 118°01'0 0.1
2016-Aug-16 00:32N 24°27' E 118°01'0 0.0
2016-Aug-15 23:32N 24°27' E 118°01'0 0.0
2016-Aug-15 22:32N 24°27' E 118°01'0 0.0
2016-Aug-15 21:32N 24°27' E 118°01'0 0.0
2016-Aug-15 20:32N 24°27' E 118°01'0 0.0
2016-Aug-15 19:32N 24°27' E 118°01'0 0.0
2016-Aug-15 18:32N 24°27' E 118°01'0 0.0
2016-Aug-15 17:32N 24°27' E 118°01'0 0.0
2016-Aug-15 16:32N 24°27' E 118°01'0 0.0
2016-Aug-15 15:32N 24°27' E 118°01'0 0.0
2016-Aug-15 14:32N 24°27' E 118°01'0 0.0
2016-Aug-15 13:33N 24°27' E 118°01'1 0.7
2016-Aug-15 12:34N 24°26' E 118°02'9 9.4
2016-Aug-15 11:33N 24°21' E 118°10'1110.9
2016-Aug-15 10:32N 24°13' E 118°18'1111.4
2016-Aug-15 09:33N 24°15' E 118°31'1414.1
2016-Aug-15 08:33N 24°18' E 118°45'1616.1
2016-Aug-15 07:33N 24°24' E 119°02'6115.2
2016-Aug-15 03:33N 25°03' E 119°53'35615.4
2016-Aug-14 04:28N 30°21' E 122°55'1516.4
2016-Aug-14 03:32N 30°28' E 122°39'  
Track history (hours):
 
Tides and Currents Weather Stations Pressure Air Temp Water Temp Dewpoint Dewpoint Depression Visibility Wind Speed Wind Dir Waves Ship Positions

MSC Vega

Last reported at 2016-Aug-23 23:29 UTC. Time now 2016-Aug-28 14:08 UTC.
Position N 01°12' E 103°35'.

Length 366 m; draft 14.3 m.

Type: Ship (hazmat cat A). MMSI: 636015506.

Date/timePositionNaut miles runAvg speedWind from/ knotsBaromVisibWave heightAir tempDewpointWater temp
2016-Aug-23 23:29N 01°12' E 103°35'8 9.1
2016-Aug-23 22:33N 01°15' E 103°43'3 3.0
2016-Aug-23 21:26N 01°17' E 103°46'0 0.0
2016-Aug-23 20:32N 01°17' E 103°46'0 0.0
2016-Aug-23 19:32N 01°17' E 103°46'0 0.0
2016-Aug-23 18:32N 01°17' E 103°46'0 0.0
2016-Aug-23 17:32N 01°17' E 103°46'0 0.0
2016-Aug-23 16:32N 01°17' E 103°46'0 0.1
2016-Aug-23 15:32N 01°17' E 103°45'0 0.1
2016-Aug-23 14:29N 01°17' E 103°46'0 0.0
2016-Aug-23 13:20N 01°17' E 103°46'0 0.0
2016-Aug-23 12:32N 01°17' E 103°46'0 0.0
2016-Aug-23 11:32N 01°17' E 103°46'0 0.0
2016-Aug-23 10:32N 01°17' E 103°46'0 0.0
2016-Aug-23 09:32N 01°17' E 103°46'0 0.0
2016-Aug-23 08:26N 01°17' E 103°46'0 0.0
2016-Aug-23 07:20N 01°17' E 103°46'0 0.0
2016-Aug-23 06:32N 01°17' E 103°46'0 0.1
2016-Aug-23 05:32N 01°17' E 103°45'0 0.1
2016-Aug-23 04:32N 01°17' E 103°46'0 0.0
2016-Aug-23 03:32N 01°17' E 103°46'0 0.0
2016-Aug-23 02:32N 01°17' E 103°46'1 1.1
2016-Aug-23 01:33N 01°16' E 103°46'8 8.0
2016-Aug-23 00:33N 01°14' E 103°54'8 8.1
2016-Aug-22 23:33N 01°16' E 104°02'  
2016-Aug-19 11:06N 22°04' E 114°25'1017.9
2016-Aug-19 10:33N 22°13' E 114°28'2 0.1
2016-Aug-18 18:08N 22°14' E 114°30'813.1
2016-Aug-18 17:33N 22°07' E 114°25'2311.5
2016-Aug-18 15:33N 22°20' E 114°05'1110.9
2016-Aug-18 14:33N 22°23' E 113°54'5 3.8
2016-Aug-18 13:23N 22°28' E 113°53'0 0.0
2016-Aug-18 12:29N 22°28' E 113°53'0 0.0
2016-Aug-18 11:29N 22°28' E 113°53'0 0.0
2016-Aug-18 10:29N 22°28' E 113°53'0 0.0
2016-Aug-18 09:29N 22°28' E 113°53'0 0.0
2016-Aug-18 08:17N 22°28' E 113°53'0 0.0
2016-Aug-18 07:29N 22°28' E 113°53'0 0.0
2016-Aug-18 06:29N 22°28' E 113°53'0 0.0
2016-Aug-18 05:32N 22°28' E 113°53'0 0.0
2016-Aug-18 04:29N 22°28' E 113°53'0 0.0
2016-Aug-18 03:23N 22°28' E 113°53'0 0.0
2016-Aug-18 02:29N 22°28' E 113°53'0 0.0
2016-Aug-18 01:29N 22°28' E 113°53'1 0.5
2016-Aug-18 00:33N 22°27' E 113°53'11 7.3
2016-Aug-17 23:03N 22°21' E 114°02'20 4.1
2016-Aug-17 18:08N 22°05' E 113°49'5 7.9
2016-Aug-17 17:33N 22°10' E 113°50'1614.9
2016-Aug-17 16:28N 22°26' E 113°45'2 0.1
2016-Aug-16 22:33N 22°27' E 113°45'1313.5
2016-Aug-16 21:33N 22°14' E 113°49'17015.0
2016-Aug-16 10:14N 22°49' E 116°49'1318.5
2016-Aug-16 09:31N 22°56' E 117°01'9017.9
2016-Aug-16 04:29N 23°56' E 118°15'1617.6
2016-Aug-16 03:33N 24°12' E 118°18'1312.8
2016-Aug-16 02:33N 24°22' E 118°09'9 8.5
2016-Aug-16 01:33N 24°27' E 118°01'0 0.1
2016-Aug-16 00:32N 24°27' E 118°01'0 0.0
2016-Aug-15 23:32N 24°27' E 118°01'0 0.0
2016-Aug-15 22:32N 24°27' E 118°01'0 0.0
2016-Aug-15 21:32N 24°27' E 118°01'0 0.0
2016-Aug-15 20:32N 24°27' E 118°01'0 0.0
2016-Aug-15 19:32N 24°27' E 118°01'0 0.0
2016-Aug-15 18:32N 24°27' E 118°01'0 0.0
2016-Aug-15 17:32N 24°27' E 118°01'0 0.0
2016-Aug-15 16:32N 24°27' E 118°01'0 0.0
2016-Aug-15 15:32N 24°27' E 118°01'0 0.0
2016-Aug-15 14:32N 24°27' E 118°01'0 0.0
2016-Aug-15 13:33N 24°27' E 118°01'1 0.7
2016-Aug-15 12:34N 24°26' E 118°02'9 9.4
2016-Aug-15 11:33N 24°21' E 118°10'1110.9
2016-Aug-15 10:32N 24°13' E 118°18'1111.4
2016-Aug-15 09:33N 24°15' E 118°31'1414.1
2016-Aug-15 08:33N 24°18' E 118°45'1616.1
2016-Aug-15 07:33N 24°24' E 119°02'6115.2
2016-Aug-15 03:33N 25°03' E 119°53'35615.4
2016-Aug-14 04:28N 30°21' E 122°55'1516.4
2016-Aug-14 03:32N 30°28' E 122°39'  

Dump ship's entire track history